Terminal Aerodrome Forecast
Issued by NWS Charleston, WV

Current Version | Previous Version | Text Only | Print | Product List | Glossary Off
Versions: 1 2 3 4 5 6 7 8 9 10 11 12 13 14 15 16 17 18 19 20 21 22 23 24

544
FTUS41 KRLX 212329
TAFCRW
TAF
KCRW 212329Z 2200/2224 23006KT P6SM SCT250
     FM220800 29005KT P6SM BKN080
     FM220900 30005KT P6SM BKN018
     FM221400 33005KT P6SM SCT022
     FM221800 33005KT P6SM SCT250=

USA.gov is the U.S. government's official web portal to all federal, state and local government web resources and services.